createdAt,value
2022-09-15T00:01:18.128Z,98669.57
2022-09-15T00:03:47.560Z,98668.09
2022-09-15T00:06:15.873Z,98672.80
2022-09-15T00:08:44.036Z,98678.19
2022-09-15T00:11:22.264Z,98673.00
2022-09-15T00:13:51.060Z,98669.93
2022-09-15T00:16:21.031Z,98670.11
2022-09-15T00:18:49.350Z,98673.06
2022-09-15T00:21:23.437Z,98671.13
2022-09-15T00:23:51.663Z,98669.58
2022-09-15T00:26:22.812Z,98667.42
2022-09-15T00:28:51.487Z,98670.67
2022-09-15T00:31:22.535Z,98670.86
2022-09-15T00:33:52.618Z,98668.88
2022-09-15T00:36:21.736Z,98669.95
2022-09-15T00:38:50.890Z,98670.89
2022-09-15T00:41:20.334Z,98674.39
2022-09-15T00:44:06.318Z,98678.42
2022-09-15T00:46:41.078Z,98677.89
2022-09-15T00:49:19.007Z,98678.06
2022-09-15T00:51:54.631Z,98681.23
2022-09-15T00:54:31.642Z,98676.63
2022-09-15T00:57:09.705Z,98678.37
2022-09-15T00:59:40.439Z,98678.98
2022-09-15T01:02:18.787Z,98679.98
2022-09-15T01:04:48.765Z,98676.75
2022-09-15T01:07:25.552Z,98670.31
2022-09-15T01:10:08.427Z,98670.87
2022-09-15T01:12:36.566Z,98663.09
2022-09-15T01:15:04.720Z,98651.76
2022-09-15T01:17:51.195Z,98653.11
2022-09-15T01:20:34.487Z,98653.00
2022-09-15T01:23:18.147Z,98645.91
2022-09-15T01:26:15.746Z,98645.17
2022-09-15T01:29:21.195Z,98644.90
2022-09-15T01:32:27.040Z,98644.27
2022-09-15T01:35:23.507Z,98645.40
2022-09-15T01:38:23.095Z,98642.09
2022-09-15T01:41:05.763Z,98644.83
2022-09-15T01:43:39.202Z,98640.34
2022-09-15T01:46:08.885Z,98638.31
2022-09-15T01:48:38.562Z,98639.02
2022-09-15T01:51:07.465Z,98641.63
2022-09-15T01:53:36.053Z,98634.10
2022-09-15T01:56:10.824Z,98628.95
2022-09-15T01:58:40.772Z,98637.83
2022-09-15T02:01:22.089Z,98640.11
2022-09-15T02:03:56.346Z,98640.03
2022-09-15T02:06:51.993Z,98642.52
2022-09-15T02:09:23.037Z,98634.47
2022-09-15T02:12:19.864Z,98629.79
2022-09-15T02:15:10.841Z,98632.77
2022-09-15T02:17:45.556Z,98631.98
2022-09-15T02:20:23.613Z,98632.52
2022-09-15T02:23:00.029Z,98632.48
2022-09-15T02:25:32.693Z,98627.86
2022-09-15T02:28:04.587Z,98621.52
2022-09-15T02:30:33.077Z,98620.73
2022-09-15T02:33:06.673Z,98623.64
2022-09-15T02:35:36.121Z,98622.64
2022-09-15T02:38:09.058Z,98622.23
2022-09-15T02:40:41.196Z,98619.47
2022-09-15T02:43:14.101Z,98619.14
2022-09-15T02:45:42.179Z,98628.46
2022-09-15T02:48:09.997Z,98626.95
2022-09-15T02:50:38.885Z,98626.48
2022-09-15T02:53:07.811Z,98628.52
2022-09-15T02:55:35.585Z,98618.38
2022-09-15T02:58:04.770Z,98613.49
2022-09-15T03:00:33.466Z,98605.65
2022-09-15T03:03:01.215Z,98605.86
2022-09-15T03:05:30.225Z,98606.05
2022-09-15T03:07:58.049Z,98605.20
2022-09-15T03:10:26.445Z,98607.14
2022-09-15T03:12:55.235Z,98605.98
2022-09-15T03:15:24.850Z,98608.72
2022-09-15T03:17:53.463Z,98607.48
2022-09-15T03:20:24.259Z,98605.00
2022-09-15T03:22:52.021Z,98609.37
2022-09-15T03:25:20.832Z,98607.35
2022-09-15T03:27:48.537Z,98602.13
2022-09-15T03:30:16.350Z,98601.92
2022-09-15T03:32:45.969Z,98605.52
2022-09-15T03:35:13.762Z,98611.04
2022-09-15T03:37:41.550Z,98611.67
2022-09-15T03:40:10.739Z,98608.02
2022-09-15T03:42:38.635Z,98607.13
2022-09-15T03:45:08.407Z,98606.16
2022-09-15T03:47:36.111Z,98600.70
2022-09-15T03:50:04.150Z,98603.44
2022-09-15T03:52:32.154Z,98609.79
2022-09-15T03:54:59.880Z,98607.21
2022-09-15T03:57:27.727Z,98607.78
2022-09-15T03:59:55.496Z,98609.59
2022-09-15T04:02:23.339Z,98611.83
2022-09-15T04:04:51.136Z,98608.05
2022-09-15T04:07:18.841Z,98612.38
2022-09-15T04:09:46.582Z,98609.77
2022-09-15T04:12:14.326Z,98612.02
2022-09-15T04:14:42.169Z,98608.23
2022-09-15T04:17:11.525Z,98606.86
2022-09-15T04:19:39.326Z,98606.55
2022-09-15T04:22:07.891Z,98611.61
2022-09-15T04:24:36.296Z,98613.31
2022-09-15T04:27:04.261Z,98612.70
2022-09-15T04:29:31.964Z,98613.92
2022-09-15T04:31:59.716Z,98612.17
2022-09-15T04:34:27.487Z,98612.24
2022-09-15T04:36:55.208Z,98605.59
2022-09-15T04:39:23.429Z,98603.16
2022-09-15T04:41:51.251Z,98600.73
2022-09-15T04:44:19.109Z,98600.64
2022-09-15T04:46:46.907Z,98597.45
2022-09-15T04:49:14.692Z,98594.73
2022-09-15T04:51:42.642Z,98592.02
2022-09-15T04:54:10.735Z,98593.18
2022-09-15T04:56:39.188Z,98591.01
2022-09-15T04:59:16.600Z,98588.38
2022-09-15T05:01:45.269Z,98589.03
2022-09-15T05:04:13.428Z,98583.95
2022-09-15T05:06:41.285Z,98587.99
2022-09-15T05:09:13.529Z,98589.89
2022-09-15T05:11:41.437Z,98587.43
2022-09-15T05:14:10.624Z,98590.77
2022-09-15T05:16:40.046Z,98592.51
2022-09-15T05:19:09.276Z,98596.05
2022-09-15T05:21:36.989Z,98594.94
2022-09-15T05:24:05.457Z,98592.31
2022-09-15T05:26:33.432Z,98593.73
2022-09-15T05:29:01.197Z,98589.76
2022-09-15T05:31:31.414Z,98594.08
2022-09-15T05:34:04.330Z,98594.36
2022-09-15T05:36:33.907Z,98592.95
2022-09-15T05:39:01.925Z,98593.29
2022-09-15T05:41:30.793Z,98593.52
2022-09-15T05:43:58.975Z,98590.34
2022-09-15T05:46:29.033Z,98590.34
2022-09-15T05:48:58.568Z,98594.56
2022-09-15T05:51:30.397Z,98595.48
2022-09-15T05:53:59.779Z,98592.95
2022-09-15T05:56:27.866Z,98594.54
2022-09-15T05:58:57.195Z,98598.45
2022-09-15T06:01:28.525Z,98590.95
2022-09-15T06:03:57.651Z,98590.73
2022-09-15T06:10:09.175Z,98591.30
2022-09-15T06:12:36.890Z,98588.81
2022-09-15T06:15:04.951Z,98584.06
2022-09-15T06:17:34.032Z,98581.61
2022-09-15T06:20:01.969Z,98587.27
2022-09-15T06:22:44.881Z,98583.81
2022-09-15T06:25:14.791Z,98583.58
2022-09-15T06:27:43.549Z,98584.37
2022-09-15T06:30:12.353Z,98584.94
2022-09-15T06:32:40.369Z,98586.66
2022-09-15T06:35:08.604Z,98585.30
2022-09-15T06:37:36.472Z,98585.15
2022-09-15T06:40:05.185Z,98583.95
2022-09-15T06:42:33.078Z,98583.46
2022-09-15T06:45:01.121Z,98582.56
2022-09-15T06:47:33.775Z,98580.03
2022-09-15T06:50:01.544Z,98579.10
2022-09-15T06:52:29.307Z,98578.98
2022-09-15T06:54:59.104Z,98574.61
2022-09-15T06:57:32.166Z,98572.60
2022-09-15T07:00:09.445Z,98574.04
2022-09-15T07:02:39.622Z,98574.11
2022-09-15T07:05:11.271Z,98578.34
2022-09-15T07:07:46.143Z,98570.56
2022-09-15T07:10:13.862Z,98572.05
2022-09-15T07:12:42.455Z,98573.38
2022-09-15T07:15:10.725Z,98577.66
2022-09-15T07:17:39.260Z,98575.27
2022-09-15T07:20:09.053Z,98574.92
2022-09-15T07:22:52.881Z,98575.82
2022-09-15T07:25:20.495Z,98572.84
2022-09-15T07:27:48.183Z,98571.48
2022-09-15T07:30:15.972Z,98574.37
2022-09-15T07:32:43.618Z,98579.27
2022-09-15T07:35:11.265Z,98594.92
2022-09-15T07:37:39.471Z,98600.79
2022-09-15T07:40:07.920Z,98601.21
2022-09-15T07:42:35.744Z,98593.58
2022-09-15T07:45:03.813Z,98597.70
2022-09-15T07:47:35.850Z,98600.08
2022-09-15T07:50:05.930Z,98600.59
2022-09-15T07:52:33.758Z,98594.65
2022-09-15T07:55:01.487Z,98591.21
2022-09-15T07:57:29.220Z,98592.97
2022-09-15T07:59:56.985Z,98593.35
2022-09-15T08:02:24.841Z,98589.47
2022-09-15T08:04:53.100Z,98585.50
2022-09-15T08:07:20.843Z,98588.63
2022-09-15T08:09:48.620Z,98593.52
2022-09-15T08:12:16.669Z,98593.17
2022-09-15T08:14:44.814Z,98597.10
2022-09-15T08:17:12.629Z,98597.21
2022-09-15T08:19:40.532Z,98604.14
2022-09-15T08:22:10.893Z,98599.70
2022-09-15T08:24:41.172Z,98602.14
2022-09-15T08:27:09.064Z,98588.98
2022-09-15T08:29:36.820Z,98583.87
2022-09-15T08:32:05.114Z,98585.16
2022-09-15T08:34:32.853Z,98588.61
2022-09-15T08:37:00.920Z,98587.45
2022-09-15T08:39:28.848Z,98583.82
2022-09-15T08:42:02.761Z,98583.63
2022-09-15T08:44:39.994Z,98590.16
2022-09-15T08:47:15.836Z,98585.27
2022-09-15T08:49:58.879Z,98589.08
2022-09-15T08:52:33.414Z,98596.66
2022-09-15T08:55:06.923Z,98591.69
2022-09-15T08:57:34.514Z,98584.36
2022-09-15T09:00:02.714Z,98580.71
2022-09-15T09:03:03.427Z,98583.77
2022-09-15T09:05:41.659Z,98585.43
2022-09-15T09:08:25.765Z,98585.18
2022-09-15T09:11:19.957Z,98582.92
2022-09-15T09:14:08.547Z,98578.30
2022-09-15T09:16:51.370Z,98577.60
2022-09-15T09:19:53.027Z,98578.72
2022-09-15T09:22:29.467Z,98579.55
2022-09-15T09:25:00.148Z,98582.45
2022-09-15T09:27:34.943Z,98578.56
2022-09-15T09:30:14.061Z,98576.69
2022-09-15T09:32:54.034Z,98576.20
2022-09-15T09:35:45.678Z,98576.84
2022-09-15T09:38:21.962Z,98584.14
2022-09-15T09:40:50.777Z,98577.17
2022-09-15T09:43:19.067Z,98584.10
2022-09-15T09:45:50.246Z,98585.23
2022-09-15T09:48:21.978Z,98584.43
2022-09-15T09:50:50.832Z,98586.73
2022-09-15T09:53:18.520Z,98585.32
2022-09-15T09:55:46.370Z,98581.39
2022-09-15T09:58:24.282Z,98580.95
2022-09-15T10:00:53.122Z,98581.36
2022-09-15T10:03:22.331Z,98580.66
2022-09-15T10:06:06.113Z,98581.84
2022-09-15T10:08:36.839Z,98577.54
2022-09-15T10:11:10.247Z,98572.83
2022-09-15T10:13:49.825Z,98577.94
2022-09-15T10:16:19.350Z,98580.60
2022-09-15T10:18:54.001Z,98580.52
2022-09-15T10:21:24.843Z,98574.88
2022-09-15T10:23:53.154Z,98570.64
2022-09-15T10:26:24.020Z,98570.62
2022-09-15T10:29:11.169Z,98574.62
2022-09-15T10:31:39.719Z,98576.73
2022-09-15T10:34:30.622Z,98574.11
2022-09-15T10:37:20.049Z,98573.90
2022-09-15T10:39:52.993Z,98575.21
2022-09-15T10:42:36.775Z,98567.29
2022-09-15T10:45:13.370Z,98556.31
2022-09-15T10:48:08.945Z,98564.83
2022-09-15T10:50:46.783Z,98560.38
2022-09-15T10:53:31.394Z,98563.52
2022-09-15T10:56:14.983Z,98565.27
2022-09-15T10:59:00.819Z,98563.69
2022-09-15T11:01:29.676Z,98568.60
2022-09-15T11:04:27.045Z,98566.06
2022-09-15T11:07:16.570Z,98560.72
2022-09-15T11:09:57.479Z,98559.05
2022-09-15T11:12:31.264Z,98551.73
2022-09-15T11:15:11.546Z,98550.50
2022-09-15T11:18:18.215Z,98547.20
2022-09-15T11:21:19.351Z,98543.23
2022-09-15T11:24:05.952Z,98550.20
2022-09-15T11:26:40.237Z,98552.40
2022-09-15T11:29:25.158Z,98551.30
2022-09-15T11:34:36.504Z,98542.54
2022-09-15T11:37:12.097Z,98541.05
2022-09-15T11:39:45.159Z,98536.95
2022-09-15T11:42:46.540Z,98533.55
2022-09-15T11:45:25.502Z,98529.02
2022-09-15T11:47:59.700Z,98528.65
2022-09-15T11:50:35.799Z,98532.35
2022-09-15T11:53:36.589Z,98529.71
2022-09-15T11:56:15.913Z,98536.00
2022-09-15T11:58:55.405Z,98535.66
2022-09-15T12:01:28.654Z,98538.55
2022-09-15T12:04:13.928Z,98541.31
2022-09-15T12:07:14.477Z,98543.94
2022-09-15T12:09:42.878Z,98552.02
2022-09-15T12:12:17.986Z,98547.02
2022-09-15T12:14:49.246Z,98544.02
2022-09-15T12:17:37.515Z,98544.58
2022-09-15T12:20:48.477Z,98539.79
2022-09-15T12:23:16.169Z,98544.08
2022-09-15T12:26:10.835Z,98549.30
2022-09-15T12:28:56.197Z,98550.98
2022-09-15T12:31:36.737Z,98553.27
2022-09-15T12:34:21.558Z,98555.60
2022-09-15T12:36:52.435Z,98553.92
2022-09-15T12:39:28.651Z,98557.98
2022-09-15T12:42:05.815Z,98557.98
2022-09-15T12:44:40.364Z,98556.83
2022-09-15T12:47:20.617Z,98548.26
2022-09-15T12:49:51.662Z,98542.42
2022-09-15T12:52:22.566Z,98538.34
2022-09-15T12:54:55.504Z,98535.60
2022-09-15T12:57:25.996Z,98533.20
2022-09-15T13:00:32.491Z,98537.92
2022-09-15T13:03:47.424Z,98538.73
2022-09-15T13:06:21.426Z,98531.04
2022-09-15T13:08:51.148Z,98533.80
2022-09-15T13:11:37.691Z,98534.59
2022-09-15T13:14:12.301Z,98545.05
2022-09-15T13:16:40.264Z,98542.41
2022-09-15T13:19:12.305Z,98540.77
2022-09-15T13:21:45.050Z,98535.55
2022-09-15T13:24:38.205Z,98540.53
2022-09-15T13:27:07.715Z,98544.48
2022-09-15T13:29:53.068Z,98541.63
2022-09-15T13:32:40.997Z,98548.11
2022-09-15T13:35:24.966Z,98545.93
2022-09-15T13:38:20.001Z,98547.11
2022-09-15T13:40:52.293Z,98542.33
2022-09-15T13:43:26.174Z,98540.83
2022-09-15T13:46:12.515Z,98533.42
2022-09-15T13:48:59.387Z,98533.83
2022-09-15T13:51:29.894Z,98530.98
2022-09-15T13:54:05.560Z,98528.11
2022-09-15T13:56:38.516Z,98521.74
2022-09-15T13:59:16.851Z,98511.25
2022-09-15T14:01:45.556Z,98502.83
2022-09-15T14:04:26.893Z,98506.82
2022-09-15T14:07:00.240Z,98508.43
2022-09-15T14:09:40.347Z,98513.57
2022-09-15T14:12:12.029Z,98511.05
2022-09-15T14:14:46.562Z,98511.98
2022-09-15T14:17:23.974Z,98507.27
2022-09-15T14:19:54.495Z,98502.55
2022-09-15T14:22:29.945Z,98500.41
2022-09-15T14:24:59.529Z,98496.17
2022-09-15T14:27:30.577Z,98495.70
2022-09-15T14:30:03.165Z,98494.73
2022-09-15T14:32:38.396Z,98488.31
2022-09-15T14:35:09.397Z,98500.69
2022-09-15T14:37:37.264Z,98487.30
2022-09-15T14:40:37.716Z,98474.45
2022-09-15T14:43:42.037Z,98466.95
2022-09-15T14:46:17.008Z,98471.41
2022-09-15T14:48:44.918Z,98467.17
2022-09-15T14:51:33.254Z,98474.89
2022-09-15T14:54:05.453Z,98468.91
2022-09-15T14:56:38.423Z,98453.35
2022-09-15T14:59:19.072Z,98447.04
2022-09-15T15:01:55.414Z,98455.90
2022-09-15T15:04:36.234Z,98453.09
2022-09-15T15:07:04.933Z,98435.90
2022-09-15T15:09:54.416Z,98436.80
2022-09-15T15:12:43.572Z,98430.45
2022-09-15T15:15:16.585Z,98423.37
2022-09-15T15:17:50.785Z,98432.79
2022-09-15T15:20:22.841Z,98436.75
2022-09-15T15:23:22.958Z,98440.20
2022-09-15T15:25:51.776Z,98444.59
2022-09-15T15:28:36.456Z,98451.34
2022-09-15T15:31:12.261Z,98460.70
2022-09-15T15:33:56.615Z,98465.43
2022-09-15T15:36:26.370Z,98468.15
2022-09-15T15:38:57.058Z,98471.08
2022-09-15T15:41:28.367Z,98473.63
2022-09-15T15:44:09.199Z,98473.58
2022-09-15T15:46:54.784Z,98477.13
2022-09-15T15:49:31.910Z,98476.64
2022-09-15T15:52:02.503Z,98481.41
2022-09-15T15:54:34.144Z,98482.02
2022-09-15T15:57:22.050Z,98479.75
2022-09-15T15:59:56.921Z,98475.48
2022-09-15T16:02:28.260Z,98478.35
2022-09-15T16:04:56.103Z,98482.15
2022-09-15T16:07:29.923Z,98491.27
2022-09-15T16:10:01.740Z,98501.98
2022-09-15T16:12:31.965Z,98519.39
2022-09-15T16:15:10.427Z,98536.51
2022-09-15T16:17:40.844Z,98550.70
2022-09-15T16:20:11.748Z,98567.13
2022-09-15T16:22:40.622Z,98563.34
2022-09-15T16:25:30.854Z,98572.48
2022-09-15T16:28:00.405Z,98584.64
2022-09-15T16:30:28.485Z,98594.30
2022-09-15T16:32:56.285Z,98600.48
2022-09-15T16:35:33.406Z,98601.45
2022-09-15T16:38:01.325Z,98604.45
2022-09-15T16:40:29.333Z,98608.30
2022-09-15T16:42:57.481Z,98609.02
2022-09-15T16:45:38.194Z,98612.03
2022-09-15T16:48:10.489Z,98607.47
2022-09-15T16:50:40.146Z,98605.41
2022-09-15T16:53:15.668Z,98604.23
2022-09-15T16:55:47.287Z,98606.39
2022-09-15T16:58:16.729Z,98605.91
2022-09-15T17:00:47.100Z,98610.08
2022-09-15T17:03:17.413Z,98611.33
2022-09-15T17:05:50.158Z,98606.85
2022-09-15T17:08:20.358Z,98603.72
2022-09-15T17:10:49.252Z,98601.39
2022-09-15T17:13:22.260Z,98595.91
2022-09-15T17:15:54.092Z,98595.46
2022-09-15T17:18:22.730Z,98599.27
2022-09-15T17:20:50.898Z,98596.78
2022-09-15T17:23:27.955Z,98601.42
2022-09-15T17:25:59.727Z,98603.08
2022-09-15T17:28:33.107Z,98605.14
2022-09-15T17:31:03.910Z,98602.57
2022-09-15T17:33:32.985Z,98595.91
2022-09-15T17:36:00.871Z,98593.31
2022-09-15T17:38:28.832Z,98594.80
2022-09-15T17:40:56.627Z,98600.89
2022-09-15T17:43:27.232Z,98601.80
2022-09-15T17:45:55.610Z,98594.68
2022-09-15T17:48:23.694Z,98599.05
2022-09-15T17:50:52.314Z,98596.35
2022-09-15T17:53:23.435Z,98602.71
2022-09-15T17:55:51.228Z,98598.11
2022-09-15T17:58:19.105Z,98600.32
2022-09-15T18:00:48.678Z,98606.02
2022-09-15T18:03:22.262Z,98603.75
2022-09-15T18:05:51.525Z,98604.37
2022-09-15T18:08:19.385Z,98607.89
2022-09-15T18:10:47.722Z,98610.66
2022-09-15T18:13:19.573Z,98609.90
2022-09-15T18:15:51.202Z,98610.89
2022-09-15T18:18:22.668Z,98611.66
2022-09-15T18:20:52.903Z,98607.23
2022-09-15T18:23:24.032Z,98600.89
2022-09-15T18:25:52.278Z,98597.21
2022-09-15T18:28:20.320Z,98597.86
2022-09-15T18:30:50.399Z,98597.39
2022-09-15T18:33:24.475Z,98594.73
2022-09-15T18:35:55.276Z,98598.09
2022-09-15T18:38:23.224Z,98606.11
2022-09-15T18:40:54.011Z,98608.64
2022-09-15T18:43:23.539Z,98611.33
2022-09-15T18:45:53.244Z,98606.14
2022-09-15T18:48:21.506Z,98602.70
2022-09-15T18:50:49.513Z,98604.07
2022-09-15T18:53:17.255Z,98603.61
2022-09-15T18:55:45.071Z,98606.86
2022-09-15T18:58:13.487Z,98608.48
2022-09-15T19:00:41.823Z,98610.05
2022-09-15T19:03:09.707Z,98608.49
2022-09-15T19:05:38.539Z,98609.77
2022-09-15T19:08:08.458Z,98610.63
2022-09-15T19:10:39.379Z,98611.38
2022-09-15T19:13:07.553Z,98612.60
2022-09-15T19:15:35.418Z,98608.36
2022-09-15T19:18:03.517Z,98610.23
2022-09-15T19:20:31.263Z,98611.67
2022-09-15T19:22:59.127Z,98615.73
2022-09-15T19:25:27.092Z,98613.04
2022-09-15T19:27:54.952Z,98608.98
2022-09-15T19:30:25.378Z,98614.00
2022-09-15T19:32:54.017Z,98610.05
2022-09-15T19:35:22.978Z,98613.25
2022-09-15T19:37:51.113Z,98618.58
2022-09-15T19:40:19.097Z,98613.99
2022-09-15T19:42:47.221Z,98615.49
2022-09-15T19:45:14.993Z,98621.43
2022-09-15T19:47:42.864Z,98620.80
2022-09-15T19:50:12.048Z,98619.21
2022-09-15T19:52:40.142Z,98616.29
2022-09-15T19:55:09.555Z,98624.14
2022-09-15T19:57:41.951Z,98620.90
2022-09-15T20:00:12.390Z,98624.29
2022-09-15T20:02:40.721Z,98622.59
2022-09-15T20:05:09.248Z,98618.95
2022-09-15T20:07:37.067Z,98621.31
2022-09-15T20:10:05.585Z,98620.55
2022-09-15T20:12:33.588Z,98620.63
2022-09-15T20:15:01.761Z,98617.99
2022-09-15T20:17:29.781Z,98617.19
2022-09-15T20:19:57.809Z,98619.66
2022-09-15T20:22:26.006Z,98620.42
2022-09-15T20:24:56.015Z,98619.05
2022-09-15T20:27:23.905Z,98615.79
2022-09-15T20:29:51.748Z,98615.23
2022-09-15T20:32:22.807Z,98615.52
2022-09-15T20:34:53.867Z,98617.77
2022-09-15T20:37:23.014Z,98621.52
2022-09-15T20:39:51.385Z,98622.16
2022-09-15T20:42:19.467Z,98621.90
2022-09-15T20:44:47.352Z,98621.90
2022-09-15T20:47:15.131Z,98621.36
2022-09-15T20:49:42.945Z,98622.16
2022-09-15T20:52:10.767Z,98623.94
2022-09-15T20:54:38.549Z,98624.14
2022-09-15T20:57:06.900Z,98625.38
2022-09-15T20:59:34.781Z,98620.88
2022-09-15T21:02:05.657Z,98619.60
2022-09-15T21:04:33.919Z,98617.29
2022-09-15T21:07:01.720Z,98617.89
2022-09-15T21:09:29.491Z,98618.59
2022-09-15T21:11:57.357Z,98616.29
2022-09-15T21:14:25.178Z,98616.91
2022-09-15T21:16:53.871Z,98616.64
2022-09-15T21:19:21.857Z,98613.36
2022-09-15T21:21:49.742Z,98608.22
2022-09-15T21:24:17.521Z,98609.98
2022-09-15T21:27:01.277Z,98610.95
2022-09-15T21:29:30.059Z,98605.70
2022-09-15T21:31:57.976Z,98606.02
2022-09-15T21:34:26.315Z,98611.42
2022-09-15T21:36:54.547Z,98611.59
2022-09-15T21:39:22.780Z,98611.91
2022-09-15T21:41:50.653Z,98610.40
2022-09-15T21:44:18.702Z,98612.32
2022-09-15T21:46:47.187Z,98610.44
2022-09-15T21:49:15.130Z,98608.07
2022-09-15T21:51:42.909Z,98604.75
2022-09-15T21:54:10.713Z,98606.77
2022-09-15T21:56:38.541Z,98606.71
2022-09-15T21:59:08.245Z,98605.05
2022-09-15T22:01:36.704Z,98603.14
2022-09-15T22:04:06.487Z,98603.14
2022-09-15T22:06:36.955Z,98604.81
2022-09-15T22:09:08.634Z,98611.30
2022-09-15T22:11:37.062Z,98612.96
2022-09-15T22:14:08.120Z,98611.80
2022-09-15T22:16:38.275Z,98609.55
2022-09-15T22:19:07.963Z,98606.08
2022-09-15T22:21:37.060Z,98608.59
2022-09-15T22:24:07.165Z,98607.25
2022-09-15T22:26:37.416Z,98609.61
2022-09-15T22:29:06.333Z,98603.29
2022-09-15T22:31:35.014Z,98605.21
2022-09-15T22:34:03.650Z,98599.69
2022-09-15T22:39:58.120Z,98601.85
2022-09-15T22:42:25.897Z,98599.05
2022-09-15T22:44:53.649Z,98593.86
2022-09-15T22:47:21.562Z,98596.48
2022-09-15T22:49:49.825Z,98592.15
2022-09-15T22:52:18.046Z,98593.86
2022-09-15T22:54:46.002Z,98589.41
2022-09-15T22:57:14.328Z,98592.09
2022-09-15T22:59:42.419Z,98595.04
2022-09-15T23:02:10.455Z,98592.46
2022-09-15T23:04:38.452Z,98588.88
2022-09-15T23:07:06.232Z,98594.30
2022-09-15T23:09:36.044Z,98595.94
2022-09-15T23:12:04.064Z,98597.77
2022-09-15T23:14:32.325Z,98605.11
2022-09-15T23:17:00.233Z,98602.98
2022-09-15T23:19:28.341Z,98612.32
2022-09-15T23:21:56.192Z,98613.61
2022-09-15T23:24:24.058Z,98615.59
2022-09-15T23:26:51.782Z,98614.29
2022-09-15T23:29:19.801Z,98613.48
2022-09-15T23:31:47.627Z,98610.77
2022-09-15T23:34:15.835Z,98607.86
2022-09-15T23:36:43.604Z,98602.61
2022-09-15T23:39:11.664Z,98608.23
2022-09-15T23:41:40.575Z,98609.80
2022-09-15T23:44:08.492Z,98610.39
2022-09-15T23:46:36.363Z,98612.95
2022-09-15T23:49:04.159Z,98611.56
2022-09-15T23:51:32.288Z,98614.03
2022-09-15T23:54:02.054Z,98614.40
2022-09-15T23:56:30.132Z,98615.48
2022-09-15T23:58:57.951Z,98615.89
